sensor_id;sensor_type;location;lat;lon;timestamp;pressure;altitude;pressure_sealevel;temperature;humidity
7180;BME280;3631;42.152;24.756;2023-08-07T00:01:56;84172.06;;;-144.30;49.57
7180;BME280;3631;42.152;24.756;2023-08-07T00:04:51;84211.81;;;-144.30;49.98
7180;BME280;3631;42.152;24.756;2023-08-07T00:07:41;84203.88;;;-144.30;50.27
7180;BME280;3631;42.152;24.756;2023-08-07T00:10:38;84172.06;;;-144.30;50.13
7180;BME280;3631;42.152;24.756;2023-08-07T00:13:37;84237.66;;;-144.30;50.30
7180;BME280;3631;42.152;24.756;2023-08-07T00:16:37;84239.66;;;-144.30;50.30
7180;BME280;3631;42.152;24.756;2023-08-07T00:19:27;84172.06;;;-144.30;50.48
7180;BME280;3631;42.152;24.756;2023-08-07T00:22:14;84251.56;;;-144.30;50.14
7180;BME280;3631;42.152;24.756;2023-08-07T00:24:55;84211.81;;;-144.30;50.49
7180;BME280;3631;42.152;24.756;2023-08-07T00:27:40;84237.66;;;-144.30;50.39
7180;BME280;3631;42.152;24.756;2023-08-07T00:30:23;84227.72;;;-144.30;50.55
7180;BME280;3631;42.152;24.756;2023-08-07T00:33:09;84269.47;;;-144.30;50.64
7180;BME280;3631;42.152;24.756;2023-08-07T00:35:59;84279.38;;;-144.30;50.87
7180;BME280;3631;42.152;24.756;2023-08-07T00:38:53;84289.31;;;-144.30;50.84
7180;BME280;3631;42.152;24.756;2023-08-07T00:41:44;84289.31;;;-144.30;50.86
7180;BME280;3631;42.152;24.756;2023-08-07T00:44:37;84245.59;;;-144.30;51.08
7180;BME280;3631;42.152;24.756;2023-08-07T00:47:26;84267.47;;;-144.30;51.06
7180;BME280;3631;42.152;24.756;2023-08-07T00:50:27;84255.53;;;-144.30;51.42
7180;BME280;3631;42.152;24.756;2023-08-07T00:56:20;84305.22;;;-144.30;51.46
7180;BME280;3631;42.152;24.756;2023-08-07T01:02:18;84269.47;;;-144.30;51.94
7180;BME280;3631;42.152;24.756;2023-08-07T01:05:11;84303.25;;;-144.30;51.91
7180;BME280;3631;42.152;24.756;2023-08-07T01:08:20;84279.38;;;-144.30;52.03
7180;BME280;3631;42.152;24.756;2023-08-07T01:11:14;84289.31;;;-144.30;52.25
7180;BME280;3631;42.152;24.756;2023-08-07T01:14:06;84307.22;;;-144.30;52.29
7180;BME280;3631;42.152;24.756;2023-08-07T01:16:57;84313.19;;;-144.30;52.68
7180;BME280;3631;42.152;24.756;2023-08-07T01:19:50;84319.13;;;-144.30;52.67
7180;BME280;3631;42.152;24.756;2023-08-07T01:22:55;84329.06;;;-144.30;53.08
7180;BME280;3631;42.152;24.756;2023-08-07T01:25:38;84315.16;;;-144.30;53.09
7180;BME280;3631;42.152;24.756;2023-08-07T01:28:33;84356.91;;;-144.30;53.26
7180;BME280;3631;42.152;24.756;2023-08-07T01:31:26;84370.81;;;-144.30;53.21
7180;BME280;3631;42.152;24.756;2023-08-07T01:34:22;84390.69;;;-144.30;53.52
7180;BME280;3631;42.152;24.756;2023-08-07T01:37:20;84370.81;;;-144.30;53.45
7180;BME280;3631;42.152;24.756;2023-08-07T01:40:05;84378.75;;;-144.30;53.83
7180;BME280;3631;42.152;24.756;2023-08-07T01:42:55;84374.78;;;-144.30;53.75
7180;BME280;3631;42.152;24.756;2023-08-07T01:45:50;84178.03;;;-144.30;53.94
7180;BME280;3631;42.152;24.756;2023-08-07T01:48:55;84408.56;;;-144.30;54.11
7180;BME280;3631;42.152;24.756;2023-08-07T01:51:50;84436.38;;;-144.30;54.75
7180;BME280;3631;42.152;24.756;2023-08-07T01:54:38;84418.50;;;-144.30;55.07
7180;BME280;3631;42.152;24.756;2023-08-07T01:57:34;84444.34;;;-144.30;55.34
7180;BME280;3631;42.152;24.756;2023-08-07T02:00:27;84366.84;;;-144.30;55.60
7180;BME280;3631;42.152;24.756;2023-08-07T02:03:10;84442.34;;;-144.30;55.98
7180;BME280;3631;42.152;24.756;2023-08-07T02:06:01;84464.22;;;-144.30;56.09
7180;BME280;3631;42.152;24.756;2023-08-07T02:08:51;84454.28;;;-144.30;56.49
7180;BME280;3631;42.152;24.756;2023-08-07T02:11:35;84472.16;;;-144.30;56.45
7180;BME280;3631;42.152;24.756;2023-08-07T02:14:29;84509.94;;;-144.30;56.70
7180;BME280;3631;42.152;24.756;2023-08-07T02:17:18;84521.84;;;-144.30;56.78
7180;BME280;3631;42.152;24.756;2023-08-07T02:20:12;84464.22;;;-144.30;56.67
7180;BME280;3631;42.152;24.756;2023-08-07T02:23:07;84454.28;;;-144.30;56.70
7180;BME280;3631;42.152;24.756;2023-08-07T02:26:03;84480.13;;;-144.30;56.82
7180;BME280;3631;42.152;24.756;2023-08-07T02:28:57;84490.06;;;-144.30;57.08
7180;BME280;3631;42.152;24.756;2023-08-07T02:32:08;84517.88;;;-144.30;57.30
7180;BME280;3631;42.152;24.756;2023-08-07T02:35:08;84531.78;;;-144.30;57.53
7180;BME280;3631;42.152;24.756;2023-08-07T02:37:58;85018.75;;;-144.30;57.64
7180;BME280;3631;42.152;24.756;2023-08-07T02:40:49;84501.97;;;-144.30;57.60
7180;BME280;3631;42.152;24.756;2023-08-07T02:43:43;84531.78;;;-144.30;57.74
7180;BME280;3631;42.152;24.756;2023-08-07T02:46:34;84509.94;;;-144.30;57.64
7180;BME280;3631;42.152;24.756;2023-08-07T02:49:30;84529.81;;;-144.30;57.63
7180;BME280;3631;42.152;24.756;2023-08-07T02:52:10;84537.75;;;-144.30;58.14
7180;BME280;3631;42.152;24.756;2023-08-07T02:55:00;84511.91;;;-144.30;58.09
7180;BME280;3631;42.152;24.756;2023-08-07T02:57:52;84561.59;;;-144.30;58.79
7180;BME280;3631;42.152;24.756;2023-08-07T03:00:45;84519.88;;;-144.30;59.01
7180;BME280;3631;42.152;24.756;2023-08-07T03:03:40;84593.41;;;-144.30;59.50
7180;BME280;3631;42.152;24.756;2023-08-07T03:06:37;84605.31;;;-144.30;59.92
7180;BME280;3631;42.152;24.756;2023-08-07T03:09:27;84583.47;;;-144.30;59.78
7180;BME280;3631;42.152;24.756;2023-08-07T03:12:07;84585.44;;;-144.30;59.96
7180;BME280;3631;42.152;24.756;2023-08-07T03:14:39;84595.38;;;-144.30;60.13
7180;BME280;3631;42.152;24.756;2023-08-07T03:17:11;84601.34;;;-144.30;60.21
7180;BME280;3631;42.152;24.756;2023-08-07T03:19:45;84559.63;;;-144.30;60.37
7180;BME280;3631;42.152;24.756;2023-08-07T03:22:22;84595.38;;;-144.30;60.24
7180;BME280;3631;42.152;24.756;2023-08-07T03:24:53;84619.22;;;-144.30;60.52
7180;BME280;3631;42.152;24.756;2023-08-07T03:27:26;84595.38;;;-144.30;60.61
7180;BME280;3631;42.152;24.756;2023-08-07T03:29:56;84629.19;;;-144.30;60.65
7180;BME280;3631;42.152;24.756;2023-08-07T03:32:24;84597.38;;;-144.30;60.70
7180;BME280;3631;42.152;24.756;2023-08-07T03:34:53;84599.34;;;-144.30;60.57
7180;BME280;3631;42.152;24.756;2023-08-07T03:37:27;84563.59;;;-144.30;60.56
7180;BME280;3631;42.152;24.756;2023-08-07T03:39:58;84591.41;;;-144.30;60.39
7180;BME280;3631;42.152;24.756;2023-08-07T03:42:29;84595.38;;;-144.30;60.02
7180;BME280;3631;42.152;24.756;2023-08-07T03:45:04;84591.41;;;-144.30;59.58
7180;BME280;3631;42.152;24.756;2023-08-07T03:47:33;84553.66;;;-144.30;59.38
7180;BME280;3631;42.152;24.756;2023-08-07T03:50:01;84577.50;;;-144.30;59.16
7180;BME280;3631;42.152;24.756;2023-08-07T03:52:42;84561.59;;;-144.30;58.93
7180;BME280;3631;42.152;24.756;2023-08-07T03:55:17;84567.56;;;-144.30;58.70
7180;BME280;3631;42.152;24.756;2023-08-07T03:57:48;84533.78;;;-144.30;58.40
7180;BME280;3631;42.152;24.756;2023-08-07T04:00:23;84474.16;;;-144.30;58.04
7180;BME280;3631;42.152;24.756;2023-08-07T04:02:55;84422.47;;;-144.30;56.58
7180;BME280;3631;42.152;24.756;2023-08-07T04:05:40;84203.88;;;-144.30;53.28
7180;BME280;3631;42.152;24.756;2023-08-07T04:08:25;83997.22;;;-144.30;49.64
7180;BME280;3631;42.152;24.756;2023-08-07T04:11:10;83742.88;;;-144.30;46.99
7180;BME280;3631;42.152;24.756;2023-08-07T04:13:57;83532.25;;;-144.30;44.14
7180;BME280;3631;42.152;24.756;2023-08-07T04:16:49;83422.97;;;-144.30;42.88
7180;BME280;3631;42.152;24.756;2023-08-07T04:19:31;83275.94;;;-144.30;41.53
7180;BME280;3631;42.152;24.756;2023-08-07T04:22:08;83103.13;;;-144.30;39.95
7180;BME280;3631;42.152;24.756;2023-08-07T04:24:50;82964.06;;;-144.30;38.47
7180;BME280;3631;42.152;24.756;2023-08-07T04:27:36;82781.28;;;-144.30;36.96
7180;BME280;3631;42.152;24.756;2023-08-07T04:30:15;82681.97;;;-144.30;36.19
7180;BME280;3631;42.152;24.756;2023-08-07T04:32:50;82558.81;;;-144.30;35.43
7180;BME280;3631;42.152;24.756;2023-08-07T04:35:23;82493.28;;;-144.30;35.11
7180;BME280;3631;42.152;24.756;2023-08-07T04:37:55;82535.00;;;-144.30;35.13
7180;BME280;3631;42.152;24.756;2023-08-07T04:40:34;82554.84;;;-144.30;34.99
7180;BME280;3631;42.152;24.756;2023-08-07T04:43:15;82439.66;;;-144.30;34.27
7180;BME280;3631;42.152;24.756;2023-08-07T04:45:52;82427.72;;;-144.30;34.30
7180;BME280;3631;42.152;24.756;2023-08-07T04:48:40;82260.88;;;-144.30;33.50
7180;BME280;3631;42.152;24.756;2023-08-07T04:51:14;82141.72;;;-144.30;33.43
7180;BME280;3631;42.152;24.756;2023-08-07T04:53:49;82117.88;;;-144.30;32.81
7180;BME280;3631;42.152;24.756;2023-08-07T04:56:38;82046.41;;;-144.30;32.29
7180;BME280;3631;42.152;24.756;2023-08-07T04:59:16;81839.84;;;-144.30;31.30
7180;BME280;3631;42.152;24.756;2023-08-07T05:02:01;81559.84;;;-144.30;30.40
7180;BME280;3631;42.152;24.756;2023-08-07T05:04:51;81440.72;;;-144.30;29.80
7180;BME280;3631;42.152;24.756;2023-08-07T05:07:32;81657.16;;;-144.30;30.35
7180;BME280;3631;42.152;24.756;2023-08-07T05:10:18;81700.84;;;-144.30;30.51
7180;BME280;3631;42.152;24.756;2023-08-07T05:13:08;81575.75;;;-144.30;29.82
7180;BME280;3631;42.152;24.756;2023-08-07T05:15:50;81597.59;;;-144.30;29.95
7180;BME280;3631;42.152;24.756;2023-08-07T05:18:38;81615.47;;;-144.30;29.66
7180;BME280;3631;42.152;24.756;2023-08-07T05:21:14;81639.28;;;-144.30;29.89
7180;BME280;3631;42.152;24.756;2023-08-07T05:23:56;81583.69;;;-144.30;29.84
7180;BME280;3631;42.152;24.756;2023-08-07T05:26:38;81329.53;;;-144.30;29.01
7180;BME280;3631;42.152;24.756;2023-08-07T05:29:26;81045.59;;;-144.30;27.96
7180;BME280;3631;42.152;24.756;2023-08-07T05:32:14;80993.97;;;-144.30;27.89
7180;BME280;3631;42.152;24.756;2023-08-07T05:35:02;81174.66;;;-144.30;28.39
7180;BME280;3631;42.152;24.756;2023-08-07T05:37:41;81333.50;;;-144.30;28.95
7180;BME280;3631;42.152;24.756;2023-08-07T05:40:25;81391.06;;;-144.30;28.92
7180;BME280;3631;42.152;24.756;2023-08-07T05:43:12;81262.00;;;-144.30;28.90
7180;BME280;3631;42.152;24.756;2023-08-07T05:45:59;81176.63;;;-144.30;28.27
7180;BME280;3631;42.152;24.756;2023-08-07T05:48:57;81125.00;;;-144.30;27.98
7180;BME280;3631;42.152;24.756;2023-08-07T05:51:31;81031.69;;;-144.30;28.07
7180;BME280;3631;42.152;24.756;2023-08-07T05:54:06;81041.63;;;-144.30;28.02
7180;BME280;3631;42.152;24.756;2023-08-07T05:56:35;80946.31;;;-144.30;27.70
7180;BME280;3631;42.152;24.756;2023-08-07T05:59:04;81299.72;;;-144.30;28.31
7180;BME280;3631;42.152;24.756;2023-08-07T06:01:35;81494.31;;;-144.30;28.95
7180;BME280;3631;42.152;24.756;2023-08-07T06:04:05;81450.66;;;-144.30;28.85
7180;BME280;3631;42.152;24.756;2023-08-07T06:06:40;81279.88;;;-144.30;28.45
7180;BME280;3631;42.152;24.756;2023-08-07T06:09:12;81273.91;;;-144.30;28.69
7180;BME280;3631;42.152;24.756;2023-08-07T06:11:41;81238.19;;;-144.30;28.32
7180;BME280;3631;42.152;24.756;2023-08-07T06:14:11;81317.59;;;-144.30;28.43
7180;BME280;3631;42.152;24.756;2023-08-07T06:16:46;81299.72;;;-144.30;28.53
7180;BME280;3631;42.152;24.756;2023-08-07T06:19:18;81420.84;;;-144.30;28.68
7180;BME280;3631;42.152;24.756;2023-08-07T06:21:52;81323.56;;;-144.30;29.00
7180;BME280;3631;42.152;24.756;2023-08-07T06:24:22;81637.31;;;-144.30;29.10
7180;BME280;3631;42.152;24.756;2023-08-07T06:26:51;81821.97;;;-144.30;30.11
7180;BME280;3631;42.152;24.756;2023-08-07T06:29:22;81635.31;;;-144.30;29.53
7180;BME280;3631;42.152;24.756;2023-08-07T06:31:54;81307.69;;;-144.30;28.66
7180;BME280;3631;42.152;24.756;2023-08-07T06:34:25;81117.06;;;-144.30;28.30
7180;BME280;3631;42.152;24.756;2023-08-07T06:36:56;81105.16;;;-144.30;28.15
7180;BME280;3631;42.152;24.756;2023-08-07T06:39:24;80993.97;;;-144.30;27.61
7180;BME280;3631;42.152;24.756;2023-08-07T06:41:57;80942.34;;;-144.30;27.40
7180;BME280;3631;42.152;24.756;2023-08-07T06:44:27;81132.94;;;-144.30;27.74
7180;BME280;3631;42.152;24.756;2023-08-07T06:46:58;81265.97;;;-144.30;28.14
7180;BME280;3631;42.152;24.756;2023-08-07T06:49:28;81269.94;;;-144.30;28.17
7180;BME280;3631;42.152;24.756;2023-08-07T06:51:58;81244.13;;;-144.30;28.21
7180;BME280;3631;42.152;24.756;2023-08-07T06:54:28;81256.06;;;-144.30;29.28
7180;BME280;3631;42.152;24.756;2023-08-07T06:56:56;81301.72;;;-144.30;27.94
7180;BME280;3631;42.152;24.756;2023-08-07T06:59:25;81303.72;;;-144.30;28.41
7180;BME280;3631;42.152;24.756;2023-08-07T07:01:52;81404.97;;;-144.30;28.25
7180;BME280;3631;42.152;24.756;2023-08-07T07:04:20;81452.63;;;-144.30;29.51
7180;BME280;3631;42.152;24.756;2023-08-07T07:06:47;81692.91;;;-144.30;29.93
7180;BME280;3631;42.152;24.756;2023-08-07T07:09:16;81877.59;;;-144.30;30.35
7180;BME280;3631;42.152;24.756;2023-08-07T07:11:44;81823.97;;;-144.30;30.28
7180;BME280;3631;42.152;24.756;2023-08-07T07:14:12;81728.66;;;-144.30;29.94
7180;BME280;3631;42.152;24.756;2023-08-07T07:16:45;81740.56;;;-144.30;29.63
7180;BME280;3631;42.152;24.756;2023-08-07T07:19:14;81657.16;;;-144.30;29.26
7180;BME280;3631;42.152;24.756;2023-08-07T07:21:44;81655.19;;;-144.30;29.33
7180;BME280;3631;42.152;24.756;2023-08-07T07:24:13;81506.25;;;-144.30;28.83
7180;BME280;3631;42.152;24.756;2023-08-07T07:26:43;81367.25;;;-144.30;28.59
7180;BME280;3631;42.152;24.756;2023-08-07T07:29:11;81490.34;;;-144.30;28.92
7180;BME280;3631;42.152;24.756;2023-08-07T07:31:46;81611.47;;;-144.30;29.04
7180;BME280;3631;42.152;24.756;2023-08-07T07:34:14;81412.91;;;-144.30;28.34
7180;BME280;3631;42.152;24.756;2023-08-07T07:36:46;81222.28;;;-144.30;27.64
7180;BME280;3631;42.152;24.756;2023-08-07T07:39:16;81013.81;;;-144.30;27.59
7180;BME280;3631;42.152;24.756;2023-08-07T07:41:48;80940.38;;;-144.30;27.01
7180;BME280;3631;42.152;24.756;2023-08-07T07:44:21;80829.19;;;-144.30;26.84
7180;BME280;3631;42.152;24.756;2023-08-07T07:46:54;80545.28;;;-144.30;26.31
7180;BME280;3631;42.152;24.756;2023-08-07T07:49:25;80378.56;;;-144.30;25.27
7180;BME280;3631;42.152;24.756;2023-08-07T07:51:55;80491.69;;;-144.30;25.17
7180;BME280;3631;42.152;24.756;2023-08-07T07:54:24;80390.47;;;-144.30;25.15
7180;BME280;3631;42.152;24.756;2023-08-07T07:56:57;80432.16;;;-144.30;25.04
7180;BME280;3631;42.152;24.756;2023-08-07T07:59:26;80287.25;;;-144.30;24.71
7180;BME280;3631;42.152;24.756;2023-08-07T08:01:56;80259.44;;;-144.30;24.54
7180;BME280;3631;42.152;24.756;2023-08-07T08:04:28;80571.09;;;-144.30;24.28
7180;BME280;3631;42.152;24.756;2023-08-07T08:06:58;80398.41;;;-144.30;24.38
7180;BME280;3631;42.152;24.756;2023-08-07T08:09:32;80505.59;;;-144.30;24.33
7180;BME280;3631;42.152;24.756;2023-08-07T08:12:02;80430.16;;;-144.30;24.30
7180;BME280;3631;42.152;24.756;2023-08-07T08:14:32;80320.97;;;-144.30;24.31
7180;BME280;3631;42.152;24.756;2023-08-07T08:17:01;80481.78;;;-144.30;24.22
7180;BME280;3631;42.152;24.756;2023-08-07T08:19:30;80513.53;;;-144.30;24.35
7180;BME280;3631;42.152;24.756;2023-08-07T08:22:03;80555.22;;;-144.30;24.18
7180;BME280;3631;42.152;24.756;2023-08-07T08:24:33;80676.31;;;-144.30;24.37
7180;BME280;3631;42.152;24.756;2023-08-07T08:27:06;80815.28;;;-144.30;24.83
7180;BME280;3631;42.152;24.756;2023-08-07T08:29:39;80823.22;;;-144.30;25.22
7180;BME280;3631;42.152;24.756;2023-08-07T08:32:10;80763.66;;;-144.30;24.87
7180;BME280;3631;42.152;24.756;2023-08-07T08:34:47;80874.84;;;-144.30;25.17
7180;BME280;3631;42.152;24.756;2023-08-07T08:37:23;80853.00;;;-144.30;25.04
7180;BME280;3631;42.152;24.756;2023-08-07T08:39:55;80990.00;;;-144.30;25.42
7180;BME280;3631;42.152;24.756;2023-08-07T08:42:27;81222.28;;;-144.30;25.60
7180;BME280;3631;42.152;24.756;2023-08-07T08:44:59;81264.00;;;-144.30;25.82
7180;BME280;3631;42.152;24.756;2023-08-07T08:47:42;81262.00;;;-144.30;26.03
7180;BME280;3631;42.152;24.756;2023-08-07T08:50:34;81319.59;;;-144.30;26.10
7180;BME280;3631;42.152;24.756;2023-08-07T08:53:23;81331.50;;;-144.30;25.88
7180;BME280;3631;42.152;24.756;2023-08-07T08:55:56;81438.72;;;-144.30;26.50
7180;BME280;3631;42.152;24.756;2023-08-07T08:58:28;81508.22;;;-144.30;26.39
7180;BME280;3631;42.152;24.756;2023-08-07T09:01:02;81567.78;;;-144.30;27.45
7180;BME280;3631;42.152;24.756;2023-08-07T09:03:32;81446.66;;;-144.30;26.79
7180;BME280;3631;42.152;24.756;2023-08-07T09:06:05;81516.16;;;-144.30;26.58
7180;BME280;3631;42.152;24.756;2023-08-07T09:08:43;81599.56;;;-144.30;27.10
7180;BME280;3631;42.152;24.756;2023-08-07T09:11:14;81561.84;;;-144.30;26.79
7180;BME280;3631;42.152;24.756;2023-08-07T09:13:56;81460.56;;;-144.30;26.41
7180;BME280;3631;42.152;24.756;2023-08-07T09:16:38;81436.75;;;-144.30;26.04
7180;BME280;3631;42.152;24.756;2023-08-07T09:19:13;81383.13;;;-144.30;25.74
7180;BME280;3631;42.152;24.756;2023-08-07T09:21:50;81432.78;;;-144.30;25.61
7180;BME280;3631;42.152;24.756;2023-08-07T09:24:35;81551.91;;;-144.30;26.21
7180;BME280;3631;42.152;24.756;2023-08-07T09:27:17;81454.63;;;-144.30;25.58
7180;BME280;3631;42.152;24.756;2023-08-07T09:29:50;81470.50;;;-144.30;25.55
7180;BME280;3631;42.152;24.756;2023-08-07T09:32:22;81490.34;;;-144.30;25.79
7180;BME280;3631;42.152;24.756;2023-08-07T09:34:54;81432.78;;;-144.30;25.80
7180;BME280;3631;42.152;24.756;2023-08-07T09:37:29;81492.34;;;-144.30;26.00
7180;BME280;3631;42.152;24.756;2023-08-07T09:40:06;81518.16;;;-144.30;26.02
7180;BME280;3631;42.152;24.756;2023-08-07T09:42:40;81474.47;;;-144.30;26.02
7180;BME280;3631;42.152;24.756;2023-08-07T09:45:19;81383.13;;;-144.30;25.68
7180;BME280;3631;42.152;24.756;2023-08-07T09:47:57;81522.13;;;-144.30;25.93
7180;BME280;3631;42.152;24.756;2023-08-07T09:50:33;81635.31;;;-144.30;26.19
7180;BME280;3631;42.152;24.756;2023-08-07T09:53:05;81641.28;;;-144.30;26.58
7180;BME280;3631;42.152;24.756;2023-08-07T09:55:43;81609.50;;;-144.30;25.75
7180;BME280;3631;42.152;24.756;2023-08-07T09:58:25;81488.38;;;-144.30;25.35
7180;BME280;3631;42.152;24.756;2023-08-07T10:01:17;81514.19;;;-144.30;25.18
7180;BME280;3631;42.152;24.756;2023-08-07T10:03:56;81480.44;;;-144.30;25.39
7180;BME280;3631;42.152;24.756;2023-08-07T10:06:31;81595.59;;;-144.30;25.62
7180;BME280;3631;42.152;24.756;2023-08-07T10:09:01;81657.16;;;-144.30;25.79
7180;BME280;3631;42.152;24.756;2023-08-07T10:11:40;81643.25;;;-144.30;25.74
7180;BME280;3631;42.152;24.756;2023-08-07T10:14:12;81690.91;;;-144.30;25.57
7180;BME280;3631;42.152;24.756;2023-08-07T10:16:42;81704.81;;;-144.30;25.45
7180;BME280;3631;42.152;24.756;2023-08-07T10:19:12;81686.94;;;-144.30;25.37
7180;BME280;3631;42.152;24.756;2023-08-07T10:21:41;81823.97;;;-144.30;25.59
7180;BME280;3631;42.152;24.756;2023-08-07T10:24:17;81800.13;;;-144.30;25.83
7180;BME280;3631;42.152;24.756;2023-08-07T10:26:55;81847.78;;;-144.30;26.15
7180;BME280;3631;42.152;24.756;2023-08-07T10:29:28;81843.81;;;-144.30;26.29
7180;BME280;3631;42.152;24.756;2023-08-07T10:32:00;82030.50;;;-144.30;26.64
7180;BME280;3631;42.152;24.756;2023-08-07T10:34:38;82070.22;;;-144.30;26.98
7180;BME280;3631;42.152;24.756;2023-08-07T10:37:41;82151.66;;;-144.30;27.11
7180;BME280;3631;42.152;24.756;2023-08-07T10:40:13;82183.44;;;-144.30;27.18
7180;BME280;3631;42.152;24.756;2023-08-07T10:43:14;82235.06;;;-144.30;27.03
7180;BME280;3631;42.152;24.756;2023-08-07T10:45:46;82328.41;;;-144.30;27.04
7180;BME280;3631;42.152;24.756;2023-08-07T10:48:19;82340.34;;;-144.30;27.81
7180;BME280;3631;42.152;24.756;2023-08-07T10:50:58;82346.28;;;-144.30;28.37
7180;BME280;3631;42.152;24.756;2023-08-07T10:53:38;82334.38;;;-144.30;28.05
7180;BME280;3631;42.152;24.756;2023-08-07T10:56:15;82431.69;;;-144.30;28.05
7180;BME280;3631;42.152;24.756;2023-08-07T10:58:50;82431.69;;;-144.30;28.25
7180;BME280;3631;42.152;24.756;2023-08-07T11:01:40;82449.56;;;-144.30;28.32
7180;BME280;3631;42.152;24.756;2023-08-07T11:04:11;82435.66;;;-144.30;28.15
7180;BME280;3631;42.152;24.756;2023-08-07T11:06:41;82403.91;;;-144.30;28.29
7180;BME280;3631;42.152;24.756;2023-08-07T11:09:12;82445.59;;;-144.30;28.34
7180;BME280;3631;42.152;24.756;2023-08-07T11:11:44;82439.66;;;-144.30;28.69
7180;BME280;3631;42.152;24.756;2023-08-07T11:14:17;82485.34;;;-144.30;28.56
7180;BME280;3631;42.152;24.756;2023-08-07T11:16:49;82503.22;;;-144.30;28.54
7180;BME280;3631;42.152;24.756;2023-08-07T11:19:22;82523.06;;;-144.30;28.85
7180;BME280;3631;42.152;24.756;2023-08-07T11:21:57;82435.66;;;-144.30;28.70
7180;BME280;3631;42.152;24.756;2023-08-07T11:24:27;82481.34;;;-144.30;28.58
7180;BME280;3631;42.152;24.756;2023-08-07T11:26:59;82483.34;;;-144.30;28.54
7180;BME280;3631;42.152;24.756;2023-08-07T11:29:32;82447.59;;;-144.30;28.51
7180;BME280;3631;42.152;24.756;2023-08-07T11:32:05;82469.44;;;-144.30;28.46
7180;BME280;3631;42.152;24.756;2023-08-07T11:34:34;82515.13;;;-144.30;28.60
7180;BME280;3631;42.152;24.756;2023-08-07T11:37:06;82578.69;;;-144.30;28.60
7180;BME280;3631;42.152;24.756;2023-08-07T11:39:44;82497.25;;;-144.30;28.88
7180;BME280;3631;42.152;24.756;2023-08-07T11:42:14;82517.09;;;-144.30;28.88
7180;BME280;3631;42.152;24.756;2023-08-07T11:44:48;82529.03;;;-144.30;29.14
7180;BME280;3631;42.152;24.756;2023-08-07T11:47:19;82564.78;;;-144.30;29.24
7180;BME280;3631;42.152;24.756;2023-08-07T11:49:53;82582.66;;;-144.30;29.09
7180;BME280;3631;42.152;24.756;2023-08-07T11:52:28;82578.69;;;-144.30;29.07
7180;BME280;3631;42.152;24.756;2023-08-07T11:55:03;82536.97;;;-144.30;29.08
7180;BME280;3631;42.152;24.756;2023-08-07T11:57:37;82487.31;;;-144.30;28.81
7180;BME280;3631;42.152;24.756;2023-08-07T12:00:13;82463.47;;;-144.30;29.26
7180;BME280;3631;42.152;24.756;2023-08-07T12:02:46;82475.41;;;-144.30;29.14
7180;BME280;3631;42.152;24.756;2023-08-07T12:05:19;82465.47;;;-144.30;28.92
7180;BME280;3631;42.152;24.756;2023-08-07T12:07:50;82535.00;;;-144.30;29.28
7180;BME280;3631;42.152;24.756;2023-08-07T12:10:21;82538.97;;;-144.30;29.34
7180;BME280;3631;42.152;24.756;2023-08-07T12:12:58;82533.00;;;-144.30;29.36
7180;BME280;3631;42.152;24.756;2023-08-07T12:15:38;82523.06;;;-144.30;29.89
7180;BME280;3631;42.152;24.756;2023-08-07T12:18:09;82580.66;;;-144.30;29.29
7180;BME280;3631;42.152;24.756;2023-08-07T12:20:41;82578.69;;;-144.30;29.79
7180;BME280;3631;42.152;24.756;2023-08-07T12:23:16;82535.00;;;-144.30;29.92
7180;BME280;3631;42.152;24.756;2023-08-07T12:25:51;82527.03;;;-144.30;29.44
7180;BME280;3631;42.152;24.756;2023-08-07T12:28:21;82519.09;;;-144.30;29.46
7180;BME280;3631;42.152;24.756;2023-08-07T12:30:56;82554.84;;;-144.30;29.77
7180;BME280;3631;42.152;24.756;2023-08-07T12:33:30;82568.75;;;-144.30;29.87
7180;BME280;3631;42.152;24.756;2023-08-07T12:36:02;82584.66;;;-144.30;29.92
7180;BME280;3631;42.152;24.756;2023-08-07T12:38:37;82554.84;;;-144.30;30.07
7180;BME280;3631;42.152;24.756;2023-08-07T12:41:19;82554.84;;;-144.30;30.35
7180;BME280;3631;42.152;24.756;2023-08-07T12:43:59;82550.88;;;-144.30;30.45
7180;BME280;3631;42.152;24.756;2023-08-07T12:46:35;82546.91;;;-144.30;30.19
7180;BME280;3631;42.152;24.756;2023-08-07T12:49:09;82507.19;;;-144.30;30.51
7180;BME280;3631;42.152;24.756;2023-08-07T12:51:37;82503.22;;;-144.30;31.01
7180;BME280;3631;42.152;24.756;2023-08-07T12:54:06;82461.50;;;-144.30;30.94
7180;BME280;3631;42.152;24.756;2023-08-07T12:56:40;82427.72;;;-144.30;30.56
7180;BME280;3631;42.152;24.756;2023-08-07T12:59:10;82503.22;;;-144.30;30.64
7180;BME280;3631;42.152;24.756;2023-08-07T13:01:45;82519.09;;;-144.30;30.95
7180;BME280;3631;42.152;24.756;2023-08-07T13:04:16;82540.94;;;-144.30;30.79
7180;BME280;3631;42.152;24.756;2023-08-07T13:06:52;82594.56;;;-144.30;31.26
7180;BME280;3631;42.152;24.756;2023-08-07T13:09:25;82574.72;;;-144.30;31.42
7180;BME280;3631;42.152;24.756;2023-08-07T13:11:58;82562.78;;;-144.30;31.22
7180;BME280;3631;42.152;24.756;2023-08-07T13:14:31;82574.72;;;-144.30;31.07
7180;BME280;3631;42.152;24.756;2023-08-07T13:17:02;82592.59;;;-144.30;31.49
7180;BME280;3631;42.152;24.756;2023-08-07T13:19:32;82554.84;;;-144.30;31.32
7180;BME280;3631;42.152;24.756;2023-08-07T13:22:04;82572.72;;;-144.30;31.47
7180;BME280;3631;42.152;24.756;2023-08-07T13:24:34;82733.63;;;-144.30;31.28
7180;BME280;3631;42.152;24.756;2023-08-07T13:27:05;82648.22;;;-144.30;31.61
7180;BME280;3631;42.152;24.756;2023-08-07T13:29:36;82693.88;;;-144.30;31.78
7180;BME280;3631;42.152;24.756;2023-08-07T13:32:12;82646.22;;;-144.30;31.97
7180;BME280;3631;42.152;24.756;2023-08-07T13:34:47;82638.28;;;-144.30;32.20
7180;BME280;3631;42.152;24.756;2023-08-07T13:37:17;82618.41;;;-144.30;32.01
7180;BME280;3631;42.152;24.756;2023-08-07T13:39:48;82578.69;;;-144.30;32.05
7180;BME280;3631;42.152;24.756;2023-08-07T13:42:20;82594.56;;;-144.30;31.78
7180;BME280;3631;42.152;24.756;2023-08-07T13:44:54;82582.66;;;-144.30;31.42
7180;BME280;3631;42.152;24.756;2023-08-07T13:47:30;82658.13;;;-144.30;31.58
7180;BME280;3631;42.152;24.756;2023-08-07T13:50:01;82642.25;;;-144.30;31.49
7180;BME280;3631;42.152;24.756;2023-08-07T13:52:32;82608.47;;;-144.30;31.61
7180;BME280;3631;42.152;24.756;2023-08-07T13:55:02;82644.22;;;-144.30;31.54